Aeroporto :
LOGIN :

Iscrizione | Disclaimer

   EN    FR    IT 

 










Sommario :    VFR   VFR Marginale   IFR   IFR Intensivo   IFR Molto Intensivo
Visibilità : 
Base nubi : 
>= 8 km
>= 3000ft
5 / 8 km
1000 / 3000 ft
1500m / 5 km
500 / 1000 ft
800 / 1500m
200 / 500 ft
< 800m
< 200 ft
Simboli :   Temporali  Nebbia  Neve Forte  Precipitazioni Forti  Vento > 20 kt
SIGMETs :   Varie  Temporali  Ghiacco  Turbolenza  Onda orograficha  Ceneri Vulcaniche






- Altitudine del aeroporto : 29 ft
- Codice IATA : SVG


ENZV - Sola

ULTIMO METAR :
  • 280850Z 34010KT 9999 FEW025 12/05 Q1035 NOSIG

METARs OBSOLETI :
  • 280820Z 33010KT 9999 FEW024 12/05 Q1035 NOSIG
  • 280750Z 31008KT 280V340 9999 FEW020 11/05 Q1035 NOSIG
  • 280720Z 35010KT 9999 FEW015 11/06 Q1035 NOSIG
  • 280650Z 01008KT 9999 FEW015 10/07 Q1035 NOSIG
  • 280620Z 35008KT 9999 FEW010 10/06 Q1035 NOSIG

TAF TAF ENZV
Valido dal 28 a 06 ore il 29 a 06 ore UTC


2806/2906 33008KT 9999 FEW010



MetMap, La meteo Aeronautica in un colpo d'occhio ! - Copyright ORBIFLY Dicembre 2007 - Disclaimer

ORBIFLY MET'MAP TEAM :

Programmazione e sviluppo : Alexandra Zaïnal
Concezione : Baudouin d'Aumeries
Aiuto per la programmazione : Marc-Olivier Méhu
Supporto tecnico e logistico : Manuel Goepfert
Aiuto per la traduzione : Arnaldo La Scala

Contatto : metmap@orbifly.com




FONTI E CREDITI :

   NOAA